createdAt,value
2022-08-03T00:03:11.451Z,4.63
2022-08-03T00:07:12.824Z,6.23
2022-08-03T00:11:14.039Z,7.40
2022-08-03T00:15:16.930Z,3.70
2022-08-03T00:19:18.181Z,4.17
2022-08-03T00:23:19.307Z,6.80
2022-08-03T00:27:20.533Z,6.93
2022-08-03T00:31:35.226Z,5.00
2022-08-03T00:35:29.352Z,5.77
2022-08-03T00:39:28.084Z,5.53
2022-08-03T00:43:29.238Z,4.63
2022-08-03T00:47:30.373Z,4.50
2022-08-03T00:51:33.414Z,6.00
2022-08-03T00:55:35.863Z,6.50
2022-08-03T00:59:38.587Z,6.13
2022-08-03T01:03:40.522Z,6.63
2022-08-03T01:08:00.217Z,4.43
2022-08-03T01:12:17.348Z,5.10
2022-08-03T01:16:36.642Z,10.27
2022-08-03T01:20:34.881Z,4.80
2022-08-03T01:25:13.919Z,4.70
2022-08-03T01:29:36.048Z,4.30
2022-08-03T01:33:41.059Z,5.13
2022-08-03T01:37:49.125Z,4.77
2022-08-03T01:41:53.852Z,5.47
2022-08-03T01:45:56.875Z,5.23
2022-08-03T01:49:59.981Z,5.30
2022-08-03T01:54:02.417Z,4.90
2022-08-03T01:58:06.830Z,5.20
2022-08-03T02:02:15.432Z,7.43
2022-08-03T02:06:59.987Z,5.40
2022-08-03T02:10:22.197Z,4.73
2022-08-03T02:14:27.295Z,7.10
2022-08-03T02:18:30.221Z,8.33
2022-08-03T02:22:33.345Z,4.90
2022-08-03T02:26:37.784Z,6.00
2022-08-03T02:30:42.040Z,8.03
2022-08-03T02:34:48.256Z,5.50
2022-08-03T02:38:52.897Z,5.87
2022-08-03T02:42:57.982Z,5.70
2022-08-03T02:47:05.929Z,4.77
2022-08-03T02:51:07.949Z,7.10
2022-08-03T02:55:10.301Z,6.23
2022-08-03T02:59:12.922Z,6.73
2022-08-03T03:03:14.552Z,7.13
2022-08-03T03:07:17.058Z,8.30
2022-08-03T03:11:20.910Z,6.30
2022-08-03T03:15:24.064Z,7.20
2022-08-03T03:19:26.085Z,6.30
2022-08-03T03:23:28.518Z,6.33
2022-08-03T03:27:30.268Z,6.20
2022-08-03T03:31:32.095Z,7.50
2022-08-03T03:35:38.793Z,5.13
2022-08-03T03:39:37.350Z,5.67
2022-08-03T03:43:38.694Z,5.80
2022-08-03T03:47:40.413Z,6.70
2022-08-03T03:51:41.637Z,7.53
2022-08-03T03:56:01.862Z,7.20
2022-08-03T03:59:46.170Z,6.63
2022-08-03T04:03:48.107Z,6.17
2022-08-03T04:08:17.888Z,6.07
2022-08-03T04:12:21.639Z,6.83
2022-08-03T04:16:26.603Z,6.47
2022-08-03T04:20:31.647Z,5.80
2022-08-03T04:24:36.487Z,6.20
2022-08-03T04:28:40.610Z,6.27
2022-08-03T04:32:46.053Z,6.20
2022-08-03T04:36:49.699Z,6.53
2022-08-03T04:40:52.533Z,6.50
2022-08-03T04:45:01.144Z,6.13
2022-08-03T04:49:01.068Z,6.73
2022-08-03T04:53:02.700Z,6.73
2022-08-03T04:57:03.845Z,6.13
2022-08-03T05:01:05.372Z,5.80
2022-08-03T05:05:07.701Z,7.57
2022-08-03T05:09:08.822Z,5.90
2022-08-03T05:13:11.995Z,5.50
2022-08-03T05:17:13.179Z,7.70
2022-08-03T05:21:16.151Z,7.23
2022-08-03T05:25:19.772Z,5.90
2022-08-03T05:29:20.388Z,6.47
2022-08-03T05:33:21.542Z,6.47
2022-08-03T05:37:22.770Z,6.63
2022-08-03T05:41:37.045Z,5.80
2022-08-03T05:45:28.520Z,6.43
2022-08-03T05:49:30.167Z,6.93
2022-08-03T05:53:34.799Z,5.47
2022-08-03T05:57:36.709Z,5.77
2022-08-03T06:01:37.845Z,5.90
2022-08-03T06:05:43.411Z,5.40
2022-08-03T06:10:35.378Z,5.40
2022-08-03T06:13:45.379Z,5.40
2022-08-03T06:17:51.031Z,5.20
2022-08-03T06:21:52.374Z,5.03
2022-08-03T06:25:54.492Z,5.33
2022-08-03T06:29:55.706Z,8.70
2022-08-03T06:34:31.219Z,4.80
2022-08-03T06:38:00.857Z,8.20
2022-08-03T06:42:02.195Z,5.00
2022-08-03T06:46:04.830Z,5.00
2022-08-03T06:50:16.166Z,6.70
2022-08-03T06:54:11.691Z,5.60
2022-08-03T06:58:12.995Z,5.73
2022-08-03T07:02:19.325Z,4.70
2022-08-03T07:06:17.528Z,4.23
2022-08-03T07:10:18.759Z,4.50
2022-08-03T07:14:19.880Z,4.53
2022-08-03T07:18:24.634Z,8.50
2022-08-03T07:22:24.130Z,6.30
2022-08-03T07:26:25.281Z,4.30
2022-08-03T07:30:26.517Z,6.40
2022-08-03T07:34:27.655Z,6.53
2022-08-03T07:38:29.500Z,4.57
2022-08-03T07:42:31.728Z,5.37
2022-08-03T07:46:32.866Z,7.50
2022-08-03T07:50:34.120Z,4.60
2022-08-03T07:54:35.239Z,4.13
2022-08-03T07:58:36.680Z,7.60
2022-08-03T08:02:37.909Z,7.23
2022-08-03T08:06:39.039Z,9.53
2022-08-03T08:10:40.677Z,7.07
2022-08-03T08:14:43.712Z,6.10
2022-08-03T08:18:44.911Z,6.37
2022-08-03T08:22:46.150Z,7.27
2022-08-03T08:26:47.899Z,5.37
2022-08-03T08:30:49.613Z,6.00
2022-08-03T08:34:50.823Z,4.90
2022-08-03T08:38:52.171Z,3.93
2022-08-03T08:42:58.726Z,6.10
2022-08-03T08:46:59.147Z,4.67
2022-08-03T08:51:01.901Z,7.13
2022-08-03T08:55:05.773Z,4.03
2022-08-03T08:59:08.012Z,5.63
2022-08-03T09:03:09.252Z,5.40
2022-08-03T09:07:20.060Z,4.60
2022-08-03T09:11:13.622Z,3.83
2022-08-03T09:15:25.876Z,3.77
2022-08-03T09:19:29.011Z,3.90
2022-08-03T09:24:01.595Z,5.73
2022-08-03T09:27:49.101Z,4.10
2022-08-03T09:31:54.079Z,5.23
2022-08-03T09:35:57.791Z,3.50
2022-08-03T09:39:59.170Z,3.00
2022-08-03T09:44:00.397Z,5.13
2022-08-03T09:48:22.259Z,10.43
2022-08-03T09:52:37.818Z,3.63
2022-08-03T09:56:44.246Z,4.50
2022-08-03T10:01:03.875Z,4.40
2022-08-03T10:05:07.566Z,3.20
2022-08-03T10:09:15.017Z,3.00
2022-08-03T10:13:18.352Z,3.77
2022-08-03T10:17:21.510Z,3.93
2022-08-03T10:21:22.875Z,3.70
2022-08-03T10:25:33.039Z,4.27
2022-08-03T10:29:31.018Z,8.30
2022-08-03T10:33:50.774Z,3.50
2022-08-03T10:37:42.958Z,3.20
2022-08-03T10:41:48.105Z,3.90
2022-08-03T10:45:50.146Z,3.60
2022-08-03T10:49:52.223Z,3.70
2022-08-03T10:53:55.364Z,4.50
2022-08-03T10:57:58.703Z,4.23
2022-08-03T11:02:01.312Z,3.87
2022-08-03T11:06:20.144Z,15.57
2022-08-03T11:10:31.755Z,6.40
2022-08-03T11:14:36.849Z,3.40
2022-08-03T11:18:41.891Z,3.47
2022-08-03T11:22:50.897Z,3.37
2022-08-03T11:27:12.595Z,3.47
2022-08-03T11:35:36.496Z,3.50
2022-08-03T11:39:42.629Z,3.50
2022-08-03T11:43:44.652Z,4.73
2022-08-03T11:47:50.942Z,3.40
2022-08-03T11:51:53.037Z,3.60
2022-08-03T11:55:58.058Z,4.30
2022-08-03T11:59:59.389Z,4.80
2022-08-03T12:04:04.789Z,3.43
2022-08-03T12:08:07.619Z,3.40
2022-08-03T12:12:08.924Z,3.83
2022-08-03T12:16:12.620Z,3.57
2022-08-03T12:20:17.637Z,4.30
2022-08-03T12:24:19.256Z,3.70
2022-08-03T12:28:31.822Z,4.27
2022-08-03T12:32:28.514Z,3.93
2022-08-03T12:36:31.768Z,3.80
2022-08-03T12:40:33.035Z,3.60
2022-08-03T12:44:35.378Z,4.40
2022-08-03T12:48:36.990Z,4.10
2022-08-03T12:52:45.022Z,3.90
2022-08-03T12:57:16.334Z,3.97
2022-08-03T13:01:14.900Z,4.30
2022-08-03T13:05:16.138Z,5.70
2022-08-03T13:09:17.589Z,3.50
2022-08-03T13:13:37.364Z,3.60
2022-08-03T13:17:38.508Z,3.57
2022-08-03T13:21:53.689Z,4.63
2022-08-03T13:25:55.383Z,3.77
2022-08-03T13:29:46.727Z,3.50
2022-08-03T13:33:47.956Z,6.73
2022-08-03T13:37:49.253Z,3.40
2022-08-03T13:41:50.518Z,3.60
2022-08-03T13:45:56.530Z,4.03
2022-08-03T13:50:00.118Z,5.03
2022-08-03T13:53:59.615Z,4.90
2022-08-03T13:58:06.314Z,3.83
2022-08-03T14:02:04.276Z,4.50
2022-08-03T14:06:05.529Z,4.00
2022-08-03T14:10:07.829Z,4.63
2022-08-03T14:14:09.256Z,6.53
2022-08-03T14:18:15.869Z,4.40
2022-08-03T14:22:13.855Z,5.00
2022-08-03T14:26:16.966Z,4.60
2022-08-03T14:30:18.859Z,5.20
2022-08-03T14:34:20.185Z,6.00
2022-08-03T14:38:22.007Z,3.13
2022-08-03T14:42:23.208Z,5.20
2022-08-03T14:46:24.348Z,4.70
2022-08-03T14:50:38.728Z,3.93
2022-08-03T14:54:31.193Z,3.97
2022-08-03T14:58:32.648Z,4.17
2022-08-03T15:02:34.107Z,5.67
2022-08-03T15:06:35.338Z,8.37
2022-08-03T15:10:43.787Z,6.33
2022-08-03T15:14:39.978Z,4.40
2022-08-03T15:18:41.104Z,4.40
2022-08-03T15:22:42.225Z,5.67
2022-08-03T15:26:43.356Z,4.33
2022-08-03T15:30:44.578Z,4.80
2022-08-03T15:34:50.790Z,3.50
2022-08-03T15:38:49.329Z,3.60
2022-08-03T15:42:50.667Z,6.00
2022-08-03T15:46:52.601Z,4.90
2022-08-03T15:50:54.449Z,3.73
2022-08-03T15:54:55.783Z,5.93
2022-08-03T15:59:04.956Z,4.97
2022-08-03T16:03:00.812Z,3.90
2022-08-03T16:07:02.192Z,3.93
2022-08-03T16:11:03.428Z,4.33
2022-08-03T16:15:05.835Z,4.90
2022-08-03T16:19:07.220Z,4.10
2022-08-03T16:23:11.615Z,5.50
2022-08-03T16:27:36.818Z,3.53
2022-08-03T16:31:15.158Z,6.37
2022-08-03T16:35:19.777Z,9.70
2022-08-03T16:39:19.847Z,4.93
2022-08-03T16:43:21.948Z,4.77
2022-08-03T16:47:23.443Z,4.53
2022-08-03T16:51:24.742Z,5.07
2022-08-03T16:55:43.345Z,5.10
2022-08-03T16:59:36.227Z,4.07
2022-08-03T17:03:42.400Z,3.57
2022-08-03T17:07:40.019Z,4.27
2022-08-03T17:11:47.156Z,4.30
2022-08-03T17:16:01.102Z,4.10
2022-08-03T17:19:55.168Z,12.73
2022-08-03T17:24:12.306Z,5.57
2022-08-03T17:28:49.652Z,3.47
2022-08-03T17:32:21.348Z,3.80
2022-08-03T17:36:23.134Z,3.60
2022-08-03T17:40:26.524Z,5.53
2022-08-03T17:44:44.194Z,3.97
2022-08-03T17:48:32.850Z,4.33
2022-08-03T17:52:41.296Z,4.57
2022-08-03T17:56:57.407Z,4.13
2022-08-03T18:01:57.817Z,4.23
2022-08-03T18:05:21.816Z,4.23
2022-08-03T18:10:03.937Z,5.10
2022-08-03T18:13:32.271Z,5.63
2022-08-03T18:17:55.520Z,4.70
2022-08-03T18:22:03.132Z,5.37
2022-08-03T18:25:53.611Z,3.53
2022-08-03T18:29:49.708Z,4.00
2022-08-03T18:34:17.823Z,5.27
2022-08-03T18:37:58.778Z,33.40
2022-08-03T18:42:03.239Z,40.20
2022-08-03T18:46:07.667Z,41.97
2022-08-03T18:50:13.083Z,59.67
2022-08-03T18:54:46.708Z,21.63
2022-08-03T18:58:55.634Z,14.50
2022-08-03T19:03:07.824Z,8.73
2022-08-03T19:07:09.338Z,5.90
2022-08-03T19:11:18.971Z,5.20
2022-08-03T19:15:36.035Z,5.33
2022-08-03T19:19:24.689Z,5.13
2022-08-03T19:23:26.030Z,5.70
2022-08-03T19:27:30.647Z,6.03
2022-08-03T19:31:38.476Z,8.80
2022-08-03T19:35:51.610Z,6.10
2022-08-03T19:39:45.632Z,5.90
2022-08-03T19:43:57.555Z,7.20
2022-08-03T19:48:03.182Z,7.00
2022-08-03T19:52:08.084Z,7.40
2022-08-03T19:56:11.725Z,6.13
2022-08-03T20:00:14.129Z,7.87
2022-08-03T20:04:16.614Z,5.73
2022-08-03T20:08:20.649Z,5.50
2022-08-03T20:12:27.369Z,6.53
2022-08-03T20:16:26.110Z,7.07
2022-08-03T20:20:30.754Z,8.53
2022-08-03T20:24:33.875Z,6.63
2022-08-03T20:28:50.440Z,6.13
2022-08-03T20:32:46.361Z,6.67
2022-08-03T20:36:47.525Z,7.10
2022-08-03T20:40:48.978Z,5.97
2022-08-03T20:44:58.921Z,6.70
2022-08-03T20:48:54.909Z,6.47
2022-08-03T20:52:56.876Z,9.60
2022-08-03T20:57:00.305Z,6.60
2022-08-03T21:01:02.228Z,5.83
2022-08-03T21:05:08.615Z,5.97
2022-08-03T21:09:09.435Z,6.43
2022-08-03T21:13:28.665Z,6.40
2022-08-03T21:17:40.544Z,6.50
2022-08-03T21:21:37.914Z,5.37
2022-08-03T21:25:42.271Z,10.60
2022-08-03T21:29:53.073Z,7.70
2022-08-03T21:33:48.472Z,7.73
2022-08-03T21:37:52.364Z,6.70
2022-08-03T21:41:53.679Z,8.73
2022-08-03T21:46:00.904Z,7.27
2022-08-03T21:50:09.509Z,7.30
2022-08-03T21:54:10.507Z,7.40
2022-08-03T21:58:15.167Z,7.37
2022-08-03T22:02:23.955Z,7.30
2022-08-03T22:06:22.639Z,6.50
2022-08-03T22:10:27.866Z,8.50
2022-08-03T22:14:31.994Z,6.70
2022-08-03T22:18:37.834Z,7.10
2022-08-03T22:22:40.396Z,7.63
2022-08-03T22:26:44.363Z,8.53
2022-08-03T22:30:47.104Z,7.37
2022-08-03T22:34:49.055Z,6.90
2022-08-03T22:38:52.057Z,6.03
2022-08-03T22:42:54.120Z,7.37
2022-08-03T22:46:55.675Z,7.37
2022-08-03T22:50:57.213Z,6.80
2022-08-03T22:55:04.617Z,5.97
2022-08-03T22:59:40.655Z,6.30
2022-08-03T23:03:09.400Z,6.27
2022-08-03T23:07:14.605Z,6.20
2022-08-03T23:11:17.734Z,6.30
2022-08-03T23:15:19.173Z,7.17
2022-08-03T23:19:25.851Z,8.20
2022-08-03T23:23:29.056Z,7.43
2022-08-03T23:27:32.682Z,7.70
2022-08-03T23:31:34.984Z,7.13
2022-08-03T23:36:29.820Z,7.07
2022-08-03T23:39:58.767Z,7.60
2022-08-03T23:44:02.523Z,6.70
2022-08-03T23:48:05.481Z,7.03
2022-08-03T23:52:16.822Z,6.67
2022-08-03T23:56:43.628Z,6.97
